Terminal Aerodrome Forecast
Issued by NWS

Home | Current Version | Previous Version | Text Only | Print | Product List | Glossary On
Versions: 1 2 3 4 5 6 7 8 9 10 11 12
711
FTUS43 KMQT 270521
TAFCMX
TAF
KCMX 270521Z 2706/2806 10005KT P6SM BKN050
     FM270900 25005KT P6SM SCT050
     FM271400 27010KT P6SM SCT080
     FM272300 26007KT P6SM BKN150=

USA.gov is the U.S. government's official web portal to all federal, state and local government web resources and services.